createdAt,value
2023-04-21T00:01:32.066Z,5.90
2023-04-21T00:03:38.488Z,6.00
2023-04-21T00:05:42.612Z,5.40
2023-04-21T00:07:45.448Z,5.57
2023-04-21T00:09:48.524Z,5.40
2023-04-21T00:11:51.243Z,6.07
2023-04-21T00:13:53.954Z,5.80
2023-04-21T00:15:57.989Z,6.80
2023-04-21T00:18:01.133Z,5.60
2023-04-21T00:20:04.941Z,5.97
2023-04-21T00:22:12.087Z,5.73
2023-04-21T00:24:14.907Z,5.33
2023-04-21T00:26:18.033Z,6.00
2023-04-21T00:28:20.749Z,5.60
2023-04-21T00:30:23.530Z,5.80
2023-04-21T00:32:27.946Z,5.90
2023-04-21T00:34:30.655Z,5.57
2023-04-21T00:36:33.398Z,5.63
2023-04-21T00:38:36.495Z,5.87
2023-04-21T00:40:39.220Z,5.83
2023-04-21T00:42:42.360Z,5.67
2023-04-21T00:44:45.153Z,5.90
2023-04-21T00:46:49.066Z,5.80
2023-04-21T00:48:53.234Z,5.63
2023-04-21T00:50:56.061Z,6.20
2023-04-21T00:52:58.905Z,5.07
2023-04-21T00:55:02.089Z,5.50
2023-04-21T00:57:04.841Z,5.60
2023-04-21T00:59:07.644Z,5.70
2023-04-21T01:01:10.417Z,5.67
2023-04-21T01:03:13.866Z,5.60
2023-04-21T01:05:18.258Z,6.07
2023-04-21T01:07:21.043Z,5.57
2023-04-21T01:09:23.892Z,6.37
2023-04-21T01:11:27.395Z,5.87
2023-04-21T01:13:30.111Z,6.00
2023-04-21T01:15:33.849Z,5.90
2023-04-21T01:17:38.660Z,5.40
2023-04-21T01:19:43.332Z,5.87
2023-04-21T01:21:47.736Z,5.13
2023-04-21T01:23:50.561Z,6.00
2023-04-21T01:25:54.003Z,5.40
2023-04-21T01:27:57.212Z,5.63
2023-04-21T01:30:00.268Z,5.13
2023-04-21T01:32:06.477Z,5.30
2023-04-21T01:34:09.336Z,6.07
2023-04-21T01:36:12.441Z,5.50
2023-04-21T01:38:19.507Z,6.27
2023-04-21T01:40:22.602Z,5.50
2023-04-21T01:42:26.190Z,6.03
2023-04-21T01:44:29.302Z,5.97
2023-04-21T01:46:32.056Z,5.40
2023-04-21T01:48:34.814Z,6.03
2023-04-21T01:50:37.539Z,5.80
2023-04-21T01:52:40.646Z,5.87
2023-04-21T01:54:44.716Z,5.73
2023-04-21T01:56:47.452Z,6.10
2023-04-21T01:58:50.317Z,5.60
2023-04-21T02:00:53.360Z,5.93
2023-04-21T02:02:56.281Z,6.23
2023-04-21T02:04:59.184Z,5.50
2023-04-21T02:07:01.937Z,5.60
2023-04-21T02:09:05.384Z,5.33
2023-04-21T02:11:09.388Z,5.80
2023-04-21T02:13:12.118Z,5.87
2023-04-21T02:15:14.956Z,5.47
2023-04-21T02:17:18.620Z,6.07
2023-04-21T02:19:21.575Z,5.53
2023-04-21T02:21:24.892Z,5.33
2023-04-21T02:23:27.601Z,5.47
2023-04-21T02:25:30.913Z,5.70
2023-04-21T02:27:34.941Z,5.83
2023-04-21T02:29:37.626Z,5.50
2023-04-21T02:31:50.042Z,5.33
2023-04-21T02:34:02.308Z,5.20
2023-04-21T02:36:05.587Z,5.70
2023-04-21T02:38:08.957Z,4.67
2023-04-21T02:40:12.441Z,5.73
2023-04-21T02:42:15.236Z,5.43
2023-04-21T02:44:19.350Z,5.03
2023-04-21T02:46:22.437Z,5.73
2023-04-21T02:48:25.368Z,6.07
2023-04-21T02:50:28.157Z,5.57
2023-04-21T02:52:31.035Z,5.47
2023-04-21T02:54:34.121Z,5.50
2023-04-21T02:56:36.812Z,5.40
2023-04-21T02:58:39.579Z,5.60
2023-04-21T03:00:44.043Z,6.07
2023-04-21T03:02:46.866Z,6.07
2023-04-21T03:04:49.671Z,6.10
2023-04-21T03:06:52.550Z,5.43
2023-04-21T03:08:56.681Z,5.80
2023-04-21T03:10:59.441Z,5.30
2023-04-21T03:13:02.162Z,5.40
2023-04-21T03:15:05.626Z,5.30
2023-04-21T03:17:10.032Z,5.47
2023-04-21T03:19:12.741Z,6.17
2023-04-21T03:21:15.844Z,5.10
2023-04-21T03:23:18.598Z,5.53
2023-04-21T03:25:21.794Z,5.33
2023-04-21T03:27:24.528Z,5.90
2023-04-21T03:29:27.254Z,5.70
2023-04-21T03:31:30.137Z,5.70
2023-04-21T03:33:34.650Z,5.47
2023-04-21T03:35:37.589Z,6.07
2023-04-21T03:37:40.343Z,5.00
2023-04-21T03:39:43.082Z,6.00
2023-04-21T03:41:46.261Z,5.30
2023-04-21T03:43:51.546Z,6.00
2023-04-21T03:45:54.315Z,5.27
2023-04-21T03:47:57.241Z,5.53
2023-04-21T03:50:01.778Z,5.03
2023-04-21T03:52:04.878Z,5.37
2023-04-21T03:54:08.445Z,5.20
2023-04-21T03:56:11.199Z,5.50
2023-04-21T03:58:14.533Z,6.40
2023-04-21T04:00:17.401Z,5.70
2023-04-21T04:02:20.338Z,5.80
2023-04-21T04:04:23.358Z,5.37
2023-04-21T04:06:28.449Z,5.40
2023-04-21T04:08:31.272Z,5.80
2023-04-21T04:10:34.023Z,5.30
2023-04-21T04:12:38.173Z,5.50
2023-04-21T04:14:41.406Z,5.50
2023-04-21T04:16:44.139Z,5.70
2023-04-21T04:18:46.860Z,5.00
2023-04-21T04:20:49.552Z,5.93
2023-04-21T04:22:54.000Z,5.60
2023-04-21T04:24:57.319Z,5.47
2023-04-21T04:27:00.189Z,5.30
2023-04-21T04:29:02.903Z,5.20
2023-04-21T04:31:06.257Z,5.47
2023-04-21T04:33:09.141Z,6.40
2023-04-21T04:35:12.965Z,5.40
2023-04-21T04:37:16.235Z,5.53
2023-04-21T04:39:22.178Z,5.80
2023-04-21T04:41:24.939Z,6.60
2023-04-21T04:43:27.673Z,5.57
2023-04-21T04:45:33.041Z,6.30
2023-04-21T04:47:35.845Z,7.10
2023-04-21T04:49:39.270Z,5.93
2023-04-21T04:51:42.550Z,6.10
2023-04-21T04:53:45.311Z,6.40
2023-04-21T04:55:49.374Z,6.20
2023-04-21T04:57:52.499Z,5.63
2023-04-21T04:59:56.861Z,6.73
2023-04-21T05:01:59.658Z,5.60
2023-04-21T05:04:05.402Z,6.10
2023-04-21T05:06:09.416Z,6.40
2023-04-21T05:08:12.548Z,5.60
2023-04-21T05:10:23.769Z,5.90
2023-04-21T05:12:27.843Z,5.93
2023-04-21T05:14:30.970Z,5.63
2023-04-21T05:16:34.440Z,6.23
2023-04-21T05:18:37.263Z,6.27
2023-04-21T05:20:42.274Z,6.10
2023-04-21T05:22:46.346Z,7.00
2023-04-21T05:24:49.094Z,6.03
2023-04-21T05:26:51.843Z,6.30
2023-04-21T05:28:56.540Z,6.70
2023-04-21T05:30:59.347Z,6.20
2023-04-21T05:33:02.083Z,6.63
2023-04-21T05:35:05.139Z,5.80
2023-04-21T05:37:08.628Z,6.60
2023-04-21T05:39:11.431Z,6.20
2023-04-21T05:41:14.209Z,6.20
2023-04-21T05:43:17.019Z,6.00
2023-04-21T05:45:21.931Z,5.67
2023-04-21T05:47:24.675Z,6.33
2023-04-21T05:49:27.502Z,6.47
2023-04-21T05:51:33.133Z,6.30
2023-04-21T05:53:35.882Z,6.40
2023-04-21T05:55:38.710Z,6.40
2023-04-21T05:57:41.466Z,6.97
2023-04-21T05:59:46.936Z,6.63
2023-04-21T06:01:51.192Z,5.83
2023-04-21T06:03:54.891Z,6.00
2023-04-21T06:05:58.712Z,5.53
2023-04-21T06:08:01.563Z,6.10
2023-04-21T06:10:05.821Z,6.37
2023-04-21T06:12:09.436Z,6.07
2023-04-21T06:14:12.744Z,5.73
2023-04-21T06:16:15.707Z,6.20
2023-04-21T06:18:26.670Z,6.00
2023-04-21T06:20:30.389Z,6.00
2023-04-21T06:22:36.109Z,5.97
2023-04-21T06:24:39.908Z,5.90
2023-04-21T06:26:43.593Z,5.97
2023-04-21T06:28:46.835Z,5.53
2023-04-21T06:30:49.765Z,5.87
2023-04-21T06:32:53.117Z,6.00
2023-04-21T06:34:57.776Z,5.60
2023-04-21T06:37:01.048Z,5.43
2023-04-21T06:39:05.623Z,5.90
2023-04-21T06:41:09.070Z,5.73
2023-04-21T06:43:12.069Z,5.57
2023-04-21T06:45:15.297Z,5.73
2023-04-21T06:47:19.605Z,5.83
2023-04-21T06:49:23.468Z,5.50
2023-04-21T06:51:28.094Z,6.57
2023-04-21T06:53:30.821Z,5.53
2023-04-21T06:55:33.766Z,5.63
2023-04-21T06:57:36.821Z,5.50
2023-04-21T06:59:39.668Z,5.83
2023-04-21T07:01:42.408Z,5.30
2023-04-21T07:03:46.976Z,6.30
2023-04-21T07:05:59.625Z,5.90
2023-04-21T07:08:03.901Z,5.83
2023-04-21T07:10:07.438Z,6.00
2023-04-21T07:12:10.289Z,6.17
2023-04-21T07:14:13.664Z,5.63
2023-04-21T07:16:16.628Z,5.50
2023-04-21T07:18:19.435Z,4.60
2023-04-21T07:20:22.290Z,5.97
2023-04-21T07:22:25.131Z,5.90
2023-04-21T07:24:30.381Z,5.77
2023-04-21T07:26:34.388Z,5.73
2023-04-21T07:28:37.332Z,5.60
2023-04-21T07:30:40.141Z,5.40
2023-04-21T07:32:43.009Z,5.50
2023-04-21T07:34:49.108Z,5.90
2023-04-21T07:36:52.625Z,5.97
2023-04-21T07:38:57.026Z,5.63
2023-04-21T07:41:02.150Z,6.10
2023-04-21T07:43:05.152Z,6.20
2023-04-21T07:45:08.447Z,5.80
2023-04-21T07:47:11.626Z,5.47
2023-04-21T07:49:14.728Z,5.80
2023-04-21T07:51:18.437Z,5.43
2023-04-21T07:53:21.702Z,5.53
2023-04-21T07:55:25.639Z,5.60
2023-04-21T07:57:31.922Z,5.67
2023-04-21T07:59:40.797Z,6.10
2023-04-21T08:01:44.414Z,6.00
2023-04-21T08:03:49.794Z,5.90
2023-04-21T08:05:53.142Z,5.93
2023-04-21T08:07:56.340Z,5.83
2023-04-21T08:11:00.352Z,5.07
2023-04-21T08:13:06.358Z,4.80
2023-04-21T08:15:12.560Z,5.67
2023-04-21T08:17:15.720Z,6.30
2023-04-21T08:19:18.700Z,5.53
2023-04-21T08:21:22.433Z,5.43
2023-04-21T08:23:25.406Z,5.50
2023-04-21T08:25:28.388Z,6.00
2023-04-21T08:27:32.097Z,6.20
2023-04-21T08:29:37.004Z,5.80
2023-04-21T08:31:39.940Z,5.10
2023-04-21T08:33:53.887Z,5.57
2023-04-21T08:36:12.136Z,5.37
2023-04-21T08:38:18.316Z,5.03
2023-04-21T08:40:24.183Z,6.07
2023-04-21T08:42:30.228Z,5.57
2023-04-21T08:44:34.019Z,5.50
2023-04-21T08:46:38.165Z,5.70
2023-04-21T08:48:40.900Z,4.93
2023-04-21T08:50:46.936Z,5.90
2023-04-21T08:52:49.694Z,5.50
2023-04-21T08:54:52.994Z,5.73
2023-04-21T08:57:14.068Z,5.47
2023-04-21T08:59:18.505Z,5.37
2023-04-21T09:01:21.786Z,5.10
2023-04-21T09:03:27.892Z,5.63
2023-04-21T09:05:31.425Z,5.13
2023-04-21T09:07:35.007Z,5.20
2023-04-21T09:09:52.742Z,5.77
2023-04-21T09:11:57.111Z,5.30
2023-04-21T09:14:00.597Z,5.60
2023-04-21T09:16:06.613Z,5.07
2023-04-21T09:18:13.107Z,4.90
2023-04-21T09:20:20.282Z,4.90
2023-04-21T09:22:29.303Z,5.10
2023-04-21T09:24:32.326Z,5.33
2023-04-21T09:26:36.969Z,5.73
2023-04-21T09:28:50.011Z,5.07
2023-04-21T09:30:56.772Z,5.33
2023-04-21T09:32:59.796Z,4.80
2023-04-21T09:35:03.034Z,5.77
2023-04-21T09:37:07.224Z,4.63
2023-04-21T09:39:24.456Z,5.37
2023-04-21T09:41:33.315Z,5.20
2023-04-21T09:43:36.648Z,4.60
2023-04-21T09:45:40.886Z,4.83
2023-04-21T09:47:45.028Z,4.90
2023-04-21T09:49:47.837Z,4.80
2023-04-21T09:54:00.724Z,5.33
2023-04-21T09:56:03.508Z,5.53
2023-04-21T09:58:06.663Z,5.53
2023-04-21T10:00:11.989Z,6.27
2023-04-21T10:02:16.979Z,6.10
2023-04-21T10:04:20.351Z,5.83
2023-04-21T10:06:24.436Z,6.10
2023-04-21T10:08:27.392Z,6.10
2023-04-21T10:10:36.095Z,5.57
2023-04-21T10:12:38.902Z,6.00
2023-04-21T10:14:42.422Z,5.57
2023-04-21T10:16:45.859Z,6.10
2023-04-21T10:18:48.912Z,6.07
2023-04-21T10:20:53.623Z,6.30
2023-04-21T10:22:58.608Z,5.67
2023-04-21T10:25:02.027Z,6.17
2023-04-21T10:27:06.513Z,5.93
2023-04-21T10:29:10.133Z,6.13
2023-04-21T10:31:20.460Z,5.90
2023-04-21T10:33:25.140Z,5.60
2023-04-21T10:35:53.161Z,5.77
2023-04-21T10:37:55.914Z,6.20
2023-04-21T10:39:59.385Z,5.13
2023-04-21T10:42:37.490Z,5.60
2023-04-21T10:44:44.007Z,5.43
2023-04-21T10:46:49.938Z,6.00
2023-04-21T10:48:54.609Z,5.20
2023-04-21T10:50:57.712Z,5.80
2023-04-21T10:53:11.849Z,4.97
2023-04-21T10:55:17.122Z,5.30
2023-04-21T10:57:21.789Z,5.03
2023-04-21T10:59:26.176Z,5.30
2023-04-21T11:01:29.373Z,5.70
2023-04-21T11:03:35.827Z,5.67
2023-04-21T11:05:40.471Z,4.80
2023-04-21T11:07:43.209Z,5.10
2023-04-21T11:09:48.419Z,5.27
2023-04-21T11:11:59.987Z,5.37
2023-04-21T11:14:02.817Z,4.33
2023-04-21T11:16:10.798Z,5.07
2023-04-21T11:18:13.973Z,4.47
2023-04-21T11:20:17.008Z,5.13
2023-04-21T11:22:20.833Z,4.73
2023-04-21T11:24:27.186Z,4.53
2023-04-21T11:26:31.993Z,4.70
2023-04-21T11:28:34.805Z,5.40
2023-04-21T11:30:39.241Z,4.63
2023-04-21T11:32:45.202Z,4.20
2023-04-21T11:34:48.018Z,4.73
2023-04-21T11:37:07.103Z,4.50
2023-04-21T11:39:11.459Z,4.90
2023-04-21T11:41:14.714Z,4.67
2023-04-21T11:43:17.957Z,4.50
2023-04-21T11:45:22.516Z,4.50
2023-04-21T11:47:26.540Z,4.93
2023-04-21T11:49:33.884Z,6.47
2023-04-21T11:51:38.177Z,12.80
2023-04-21T11:53:41.131Z,8.33
2023-04-21T11:55:45.202Z,8.47
2023-04-21T11:57:52.929Z,9.10
2023-04-21T11:59:59.774Z,10.07
2023-04-21T12:02:03.913Z,10.20
2023-04-21T12:04:07.031Z,8.97
2023-04-21T12:06:11.849Z,9.03
2023-04-21T12:08:16.261Z,9.43
2023-04-21T12:10:19.866Z,9.00
2023-04-21T12:12:23.225Z,8.87
2023-04-21T12:14:26.732Z,8.30
2023-04-21T12:16:30.474Z,8.27
2023-04-21T12:18:36.641Z,8.87
2023-04-21T12:20:39.704Z,7.87
2023-04-21T12:22:44.133Z,8.20
2023-04-21T12:24:46.914Z,8.13
2023-04-21T12:26:49.705Z,7.83
2023-04-21T12:28:53.035Z,7.50
2023-04-21T12:30:55.931Z,8.03
2023-04-21T12:32:58.987Z,7.60
2023-04-21T12:35:02.468Z,7.60
2023-04-21T12:37:06.849Z,7.00
2023-04-21T12:39:14.340Z,6.60
2023-04-21T12:41:17.089Z,6.57
2023-04-21T12:43:19.854Z,7.10
2023-04-21T12:45:22.990Z,6.30
2023-04-21T12:47:25.823Z,6.63
2023-04-21T12:49:28.944Z,7.00
2023-04-21T12:51:32.607Z,6.53
2023-04-21T12:53:36.803Z,6.43
2023-04-21T12:55:44.634Z,6.50
2023-04-21T12:57:53.529Z,6.10
2023-04-21T12:59:56.549Z,5.87
2023-04-21T13:01:59.320Z,5.90
2023-04-21T13:04:02.477Z,6.60
2023-04-21T13:06:05.626Z,6.07
2023-04-21T13:08:08.837Z,5.67
2023-04-21T13:10:12.093Z,6.13
2023-04-21T13:12:17.648Z,5.60
2023-04-21T13:14:23.133Z,5.80
2023-04-21T13:16:30.294Z,5.43
2023-04-21T13:18:34.890Z,5.33
2023-04-21T13:20:39.363Z,5.40
2023-04-21T13:22:43.135Z,5.53
2023-04-21T13:24:51.310Z,5.53
2023-04-21T13:26:56.414Z,5.43
2023-04-21T13:29:02.663Z,5.07
2023-04-21T13:31:07.173Z,5.13
2023-04-21T13:33:10.931Z,5.20
2023-04-21T13:35:14.436Z,5.80
2023-04-21T13:37:17.191Z,5.37
2023-04-21T13:39:21.716Z,5.00
2023-04-21T13:41:24.933Z,4.33
2023-04-21T13:43:27.937Z,4.50
2023-04-21T13:45:32.380Z,4.87
2023-04-21T13:47:35.470Z,4.93
2023-04-21T13:49:39.591Z,5.20
2023-04-21T13:51:42.355Z,4.80
2023-04-21T13:53:48.947Z,4.57
2023-04-21T13:55:52.895Z,3.83
2023-04-21T13:57:55.749Z,4.40
2023-04-21T13:59:58.522Z,4.20
2023-04-21T14:02:02.769Z,4.50
2023-04-21T14:04:06.989Z,5.00
2023-04-21T14:06:10.298Z,4.13
2023-04-21T14:08:13.397Z,4.43
2023-04-21T14:10:16.105Z,4.03
2023-04-21T14:12:19.298Z,4.17
2023-04-21T14:14:35.476Z,4.30
2023-04-21T14:16:41.335Z,3.50
2023-04-21T14:18:46.641Z,4.13
2023-04-21T14:20:50.243Z,4.20
2023-04-21T14:22:55.935Z,4.37
2023-04-21T14:24:58.768Z,4.00
2023-04-21T14:27:02.153Z,4.03
2023-04-21T14:29:05.748Z,3.93
2023-04-21T14:31:08.732Z,3.60
2023-04-21T14:33:11.810Z,3.70
2023-04-21T14:35:16.068Z,3.70
2023-04-21T14:37:19.003Z,4.10
2023-04-21T14:39:21.804Z,4.03
2023-04-21T14:41:24.647Z,3.57
2023-04-21T14:43:27.771Z,4.30
2023-04-21T14:45:30.768Z,3.70
2023-04-21T14:47:35.033Z,4.27
2023-04-21T14:49:37.688Z,3.33
2023-04-21T14:51:42.678Z,4.23
2023-04-21T14:53:46.918Z,3.30
2023-04-21T14:55:49.704Z,3.83
2023-04-21T14:57:53.181Z,3.50
2023-04-21T14:59:56.494Z,3.53
2023-04-21T15:02:01.898Z,3.90
2023-04-21T15:04:04.886Z,3.73
2023-04-21T15:06:11.359Z,3.40
2023-04-21T15:08:18.116Z,3.17
2023-04-21T15:10:21.707Z,3.70
2023-04-21T15:12:24.229Z,3.53
2023-04-21T15:14:27.382Z,3.23
2023-04-21T15:16:30.196Z,4.10
2023-04-21T15:18:33.238Z,3.50
2023-04-21T15:20:44.633Z,3.57
2023-04-21T15:22:48.463Z,3.13
2023-04-21T15:24:55.548Z,3.40
2023-04-21T15:26:58.371Z,3.47
2023-04-21T15:29:01.727Z,3.20
2023-04-21T15:31:04.594Z,3.00
2023-04-21T15:33:07.624Z,3.07
2023-04-21T15:35:10.870Z,3.20
2023-04-21T15:37:17.026Z,3.10
2023-04-21T15:39:20.126Z,3.20
2023-04-21T15:41:25.932Z,2.80
2023-04-21T15:43:28.972Z,3.50
2023-04-21T15:45:31.666Z,3.23
2023-04-21T15:47:34.651Z,2.97
2023-04-21T15:49:37.854Z,3.30
2023-04-21T15:51:41.620Z,3.63
2023-04-21T15:53:48.009Z,3.90
2023-04-21T15:55:52.553Z,2.90
2023-04-21T15:57:56.756Z,3.10
2023-04-21T15:59:59.502Z,2.80
2023-04-21T16:02:03.075Z,2.87
2023-04-21T16:04:06.539Z,2.77
2023-04-21T16:06:09.709Z,3.57
2023-04-21T16:08:15.343Z,3.67
2023-04-21T16:10:18.327Z,3.30
2023-04-21T16:12:23.595Z,3.03
2023-04-21T16:14:30.199Z,3.20
2023-04-21T16:16:37.783Z,3.00
2023-04-21T16:18:40.680Z,3.20
2023-04-21T16:20:46.239Z,2.77
2023-04-21T16:22:49.893Z,3.33
2023-04-21T16:24:53.308Z,3.37
2023-04-21T16:26:57.646Z,2.70
2023-04-21T16:29:00.836Z,3.60
2023-04-21T16:31:04.988Z,3.30
2023-04-21T16:33:09.361Z,3.23
2023-04-21T16:35:12.143Z,2.60
2023-04-21T16:37:15.603Z,3.10
2023-04-21T16:39:18.609Z,3.43
2023-04-21T16:41:21.400Z,3.00
2023-04-21T16:43:24.174Z,3.27
2023-04-21T16:45:27.337Z,3.10
2023-04-21T16:47:32.571Z,3.60
2023-04-21T16:49:35.501Z,2.90
2023-04-21T16:51:40.172Z,3.70
2023-04-21T16:53:43.211Z,2.63
2023-04-21T16:55:45.954Z,2.83
2023-04-21T16:57:48.732Z,3.07
2023-04-21T16:59:52.878Z,3.40
2023-04-21T17:01:55.668Z,2.87
2023-04-21T17:03:59.808Z,3.10
2023-04-21T17:06:04.586Z,2.80
2023-04-21T17:08:07.792Z,3.33
2023-04-21T17:10:10.882Z,2.97
2023-04-21T17:12:13.674Z,2.87
2023-04-21T17:14:16.466Z,2.73
2023-04-21T17:16:19.218Z,3.47
2023-04-21T17:18:22.027Z,3.03
2023-04-21T17:20:29.667Z,3.53
2023-04-21T17:22:32.493Z,3.20
2023-04-21T17:24:51.540Z,3.47
2023-04-21T17:26:55.062Z,3.30
2023-04-21T17:28:58.862Z,2.87
2023-04-21T17:31:15.185Z,3.20
2023-04-21T17:33:18.849Z,3.30
2023-04-21T17:35:22.041Z,3.23
2023-04-21T17:37:26.371Z,3.40
2023-04-21T17:39:29.184Z,3.10
2023-04-21T17:41:32.655Z,2.97
2023-04-21T17:43:35.956Z,3.40
2023-04-21T17:45:39.316Z,3.20
2023-04-21T17:47:54.888Z,2.80
2023-04-21T17:50:01.254Z,3.13
2023-04-21T17:52:08.644Z,2.83
2023-04-21T17:54:12.747Z,3.00
2023-04-21T17:56:19.035Z,3.30
2023-04-21T17:58:23.784Z,3.10
2023-04-21T18:00:27.709Z,2.90
2023-04-21T18:02:30.962Z,3.30
2023-04-21T18:04:34.718Z,3.00
2023-04-21T18:06:37.797Z,2.87
2023-04-21T18:08:40.723Z,2.90
2023-04-21T18:10:45.183Z,3.30
2023-04-21T18:12:47.890Z,3.00
2023-04-21T18:14:51.290Z,3.30
2023-04-21T18:16:54.449Z,3.40
2023-04-21T18:18:57.195Z,3.27
2023-04-21T18:21:00.311Z,3.40
2023-04-21T18:23:04.265Z,2.93
2023-04-21T18:25:08.150Z,3.23
2023-04-21T18:27:13.918Z,3.40
2023-04-21T18:29:17.776Z,3.70
2023-04-21T18:31:21.650Z,3.47
2023-04-21T18:33:24.766Z,3.23
2023-04-21T18:35:27.846Z,3.67
2023-04-21T18:37:31.635Z,3.30
2023-04-21T18:39:35.016Z,3.60
2023-04-21T18:41:38.890Z,3.37
2023-04-21T18:43:42.984Z,3.23
2023-04-21T18:45:45.804Z,3.40
2023-04-21T18:47:49.196Z,3.03
2023-04-21T18:49:52.764Z,3.33
2023-04-21T18:51:56.937Z,2.83
2023-04-21T18:53:59.710Z,3.30
2023-04-21T18:56:02.887Z,3.00
2023-04-21T18:58:05.605Z,3.23
2023-04-21T19:00:11.228Z,3.33
2023-04-21T19:02:14.292Z,2.90
2023-04-21T19:04:18.347Z,3.13
2023-04-21T19:06:21.339Z,2.90
2023-04-21T19:08:38.197Z,3.40
2023-04-21T19:10:44.012Z,3.67
2023-04-21T19:12:47.363Z,3.20
2023-04-21T19:14:55.018Z,3.20
2023-04-21T19:16:59.254Z,2.93
2023-04-21T19:19:04.807Z,3.50
2023-04-21T19:21:12.702Z,3.60
2023-04-21T19:23:15.474Z,3.33
2023-04-21T19:25:18.769Z,3.17
2023-04-21T19:27:21.540Z,3.77
2023-04-21T19:29:24.588Z,3.20
2023-04-21T19:31:27.452Z,3.47
2023-04-21T19:33:31.641Z,3.50
2023-04-21T19:35:35.284Z,3.10
2023-04-21T19:37:38.031Z,3.47
2023-04-21T19:39:40.796Z,3.17
2023-04-21T19:41:43.648Z,3.00
2023-04-21T19:43:47.326Z,3.50
2023-04-21T19:45:51.434Z,3.37
2023-04-21T19:47:55.300Z,3.33
2023-04-21T19:49:59.565Z,3.00
2023-04-21T19:52:04.699Z,3.90
2023-04-21T19:54:11.921Z,3.40
2023-04-21T19:56:16.197Z,3.90
2023-04-21T19:58:32.134Z,2.97
2023-04-21T20:00:42.865Z,3.37
2023-04-21T20:02:45.852Z,3.53
2023-04-21T20:04:49.897Z,2.93
2023-04-21T20:06:54.805Z,3.53
2023-04-21T20:08:57.701Z,3.13
2023-04-21T20:11:00.984Z,3.33
2023-04-21T20:13:03.797Z,3.20
2023-04-21T20:15:08.433Z,3.30
2023-04-21T20:17:12.331Z,2.70
2023-04-21T20:19:17.430Z,3.27
2023-04-21T20:21:20.361Z,3.20
2023-04-21T20:23:27.176Z,3.50
2023-04-21T20:25:30.113Z,2.90
2023-04-21T20:27:33.073Z,3.20
2023-04-21T20:29:37.083Z,2.87
2023-04-21T20:31:41.225Z,3.57
2023-04-21T20:33:44.308Z,3.40
2023-04-21T20:35:47.265Z,3.40
2023-04-21T20:37:51.025Z,3.10
2023-04-21T20:39:57.090Z,3.30
2023-04-21T20:42:11.940Z,2.70
2023-04-21T20:44:16.801Z,3.40
2023-04-21T20:46:21.272Z,3.37
2023-04-21T20:48:24.027Z,3.10
2023-04-21T20:50:31.220Z,3.20
2023-04-21T20:52:34.155Z,3.70
2023-04-21T20:54:37.567Z,3.30
2023-04-21T20:56:47.562Z,3.30
2023-04-21T20:58:50.614Z,3.53
2023-04-21T21:00:53.576Z,3.00
2023-04-21T21:02:59.478Z,3.40
2023-04-21T21:05:02.841Z,3.20
2023-04-21T21:07:06.390Z,3.37
2023-04-21T21:09:10.768Z,3.80
2023-04-21T21:11:14.161Z,2.90
2023-04-21T21:13:18.784Z,3.20
2023-04-21T21:15:21.607Z,3.20
2023-04-21T21:17:25.505Z,2.63
2023-04-21T21:19:30.078Z,2.80
2023-04-21T21:21:34.455Z,3.10
2023-04-21T21:23:38.411Z,3.60
2023-04-21T21:25:41.168Z,3.37
2023-04-21T21:27:44.025Z,3.50
2023-04-21T21:29:49.623Z,3.30
2023-04-21T21:31:56.035Z,3.10
2023-04-21T21:34:03.995Z,3.50
2023-04-21T21:36:07.265Z,3.13
2023-04-21T21:38:10.041Z,2.87
2023-04-21T21:40:13.234Z,3.60
2023-04-21T21:42:15.985Z,3.17
2023-04-21T21:44:18.700Z,3.20
2023-04-21T21:46:23.203Z,2.90
2023-04-21T21:48:26.043Z,3.10
2023-04-21T21:50:28.836Z,3.13
2023-04-21T21:52:31.571Z,2.73
2023-04-21T21:54:34.919Z,3.40
2023-04-21T21:56:37.830Z,3.40
2023-04-21T21:58:40.962Z,3.13
2023-04-21T22:00:47.231Z,3.10
2023-04-21T22:02:51.411Z,3.40
2023-04-21T22:04:55.209Z,3.13
2023-04-21T22:06:57.996Z,2.70
2023-04-21T22:09:01.253Z,2.90
2023-04-21T22:11:05.832Z,3.10
2023-04-21T22:13:08.580Z,3.20
2023-04-21T22:15:14.672Z,3.20
2023-04-21T22:17:18.032Z,3.20
2023-04-21T22:19:23.093Z,2.70
2023-04-21T22:21:27.435Z,2.80
2023-04-21T22:23:30.653Z,3.60
2023-04-21T22:25:33.386Z,3.43
2023-04-21T22:27:36.286Z,2.97
2023-04-21T22:29:39.289Z,3.10
2023-04-21T22:31:42.907Z,2.97
2023-04-21T22:33:45.752Z,3.33
2023-04-21T22:35:49.855Z,2.70
2023-04-21T22:37:52.595Z,2.87
2023-04-21T22:39:57.053Z,3.20
2023-04-21T22:41:59.791Z,2.77
2023-04-21T22:44:02.672Z,3.20
2023-04-21T22:46:06.753Z,3.40
2023-04-21T22:48:09.543Z,3.20
2023-04-21T22:50:12.386Z,3.00
2023-04-21T22:52:16.407Z,2.97
2023-04-21T22:54:19.687Z,2.87
2023-04-21T22:56:22.391Z,3.00
2023-04-21T22:58:26.078Z,3.57
2023-04-21T23:00:28.849Z,2.97
2023-04-21T23:02:32.109Z,3.53
2023-04-21T23:04:36.060Z,2.80
2023-04-21T23:06:38.763Z,2.90
2023-04-21T23:08:42.938Z,3.07
2023-04-21T23:10:47.523Z,3.90
2023-04-21T23:12:50.348Z,3.03
2023-04-21T23:14:53.156Z,3.47
2023-04-21T23:16:57.534Z,3.00
2023-04-21T23:19:00.953Z,2.67
2023-04-21T23:21:05.042Z,3.50
2023-04-21T23:23:07.886Z,3.20
2023-04-21T23:25:12.904Z,3.03
2023-04-21T23:27:15.669Z,3.30
2023-04-21T23:29:18.747Z,3.30
2023-04-21T23:31:21.565Z,3.13
2023-04-21T23:33:24.673Z,2.80
2023-04-21T23:35:27.419Z,3.40
2023-04-21T23:37:30.159Z,3.20
2023-04-21T23:39:32.941Z,3.27
2023-04-21T23:41:37.387Z,2.67
2023-04-21T23:43:40.395Z,3.20
2023-04-21T23:45:43.214Z,2.97
2023-04-21T23:47:46.851Z,2.60
2023-04-21T23:49:50.087Z,3.30
2023-04-21T23:51:52.816Z,3.07
2023-04-21T23:53:56.970Z,2.87
2023-04-21T23:55:59.674Z,3.20
2023-04-21T23:58:04.082Z,2.63
